sensor_id;sensor_type;location;lat;lon;timestamp;temperature;humidity
18225;DHT22;9237;48.590;8.854;2024-02-28T00:00:41;6.70;99.90
18225;DHT22;9237;48.590;8.854;2024-02-28T00:03:08;6.70;99.90
18225;DHT22;9237;48.590;8.854;2024-02-28T00:05:36;6.60;99.90
18225;DHT22;9237;48.590;8.854;2024-02-28T00:08:04;6.60;99.90
18225;DHT22;9237;48.590;8.854;2024-02-28T00:10:32;6.60;99.90
18225;DHT22;9237;48.590;8.854;2024-02-28T00:13:02;6.60;99.90
18225;DHT22;9237;48.590;8.854;2024-02-28T00:15:29;6.60;99.90
18225;DHT22;9237;48.590;8.854;2024-02-28T00:17:56;6.60;99.90
18225;DHT22;9237;48.590;8.854;2024-02-28T00:20:24;6.60;99.90
18225;DHT22;9237;48.590;8.854;2024-02-28T00:22:54;6.60;99.90
18225;DHT22;9237;48.590;8.854;2024-02-28T00:25:20;6.60;99.90
18225;DHT22;9237;48.590;8.854;2024-02-28T00:27:47;6.50;99.90
18225;DHT22;9237;48.590;8.854;2024-02-28T00:30:14;6.40;99.90
18225;DHT22;9237;48.590;8.854;2024-02-28T00:32:41;6.50;99.90
18225;DHT22;9237;48.590;8.854;2024-02-28T00:35:08;6.50;99.90
18225;DHT22;9237;48.590;8.854;2024-02-28T00:37:34;6.50;99.90
18225;DHT22;9237;48.590;8.854;2024-02-28T00:40:02;6.40;99.90
18225;DHT22;9237;48.590;8.854;2024-02-28T00:42:29;6.40;99.90
18225;DHT22;9237;48.590;8.854;2024-02-28T00:44:56;6.30;99.90
18225;DHT22;9237;48.590;8.854;2024-02-28T00:47:23;6.30;99.90
18225;DHT22;9237;48.590;8.854;2024-02-28T00:49:50;6.20;99.90
18225;DHT22;9237;48.590;8.854;2024-02-28T00:52:16;6.20;99.90
18225;DHT22;9237;48.590;8.854;2024-02-28T00:54:43;6.20;99.90
18225;DHT22;9237;48.590;8.854;2024-02-28T00:57:11;6.20;99.90
18225;DHT22;9237;48.590;8.854;2024-02-28T00:59:38;6.20;99.90
18225;DHT22;9237;48.590;8.854;2024-02-28T01:02:05;6.30;99.90
18225;DHT22;9237;48.590;8.854;2024-02-28T01:04:31;6.30;99.90
18225;DHT22;9237;48.590;8.854;2024-02-28T01:06:58;6.30;99.90
18225;DHT22;9237;48.590;8.854;2024-02-28T01:09:25;7.00;99.90
18225;DHT22;9237;48.590;8.854;2024-02-28T01:11:52;6.30;99.90
18225;DHT22;9237;48.590;8.854;2024-02-28T01:14:20;6.40;99.90
18225;DHT22;9237;48.590;8.854;2024-02-28T01:16:47;6.40;99.90
18225;DHT22;9237;48.590;8.854;2024-02-28T01:19:15;6.40;99.90
18225;DHT22;9237;48.590;8.854;2024-02-28T01:21:42;6.30;99.90
18225;DHT22;9237;48.590;8.854;2024-02-28T01:24:09;6.30;99.90
18225;DHT22;9237;48.590;8.854;2024-02-28T01:26:35;6.30;99.90
18225;DHT22;9237;48.590;8.854;2024-02-28T01:29:02;6.30;99.90
18225;DHT22;9237;48.590;8.854;2024-02-28T01:31:30;6.40;99.90
18225;DHT22;9237;48.590;8.854;2024-02-28T01:33:57;6.40;99.90
18225;DHT22;9237;48.590;8.854;2024-02-28T01:36:24;6.30;99.90
18225;DHT22;9237;48.590;8.854;2024-02-28T01:38:52;6.30;99.90
18225;DHT22;9237;48.590;8.854;2024-02-28T01:41:19;6.30;99.90
18225;DHT22;9237;48.590;8.854;2024-02-28T01:43:46;6.30;99.90
18225;DHT22;9237;48.590;8.854;2024-02-28T01:46:21;6.30;99.90
18225;DHT22;9237;48.590;8.854;2024-02-28T01:48:50;6.40;99.90
18225;DHT22;9237;48.590;8.854;2024-02-28T01:51:17;6.30;99.90
18225;DHT22;9237;48.590;8.854;2024-02-28T01:53:45;6.50;99.90
18225;DHT22;9237;48.590;8.854;2024-02-28T01:56:12;6.30;99.90
18225;DHT22;9237;48.590;8.854;2024-02-28T01:58:43;6.30;99.90
18225;DHT22;9237;48.590;8.854;2024-02-28T02:01:10;6.30;99.90
18225;DHT22;9237;48.590;8.854;2024-02-28T02:03:37;6.30;99.90
18225;DHT22;9237;48.590;8.854;2024-02-28T02:06:06;6.30;99.90
18225;DHT22;9237;48.590;8.854;2024-02-28T02:08:33;6.30;99.90
18225;DHT22;9237;48.590;8.854;2024-02-28T02:11:01;6.30;99.90
18225;DHT22;9237;48.590;8.854;2024-02-28T02:13:28;6.40;99.90
18225;DHT22;9237;48.590;8.854;2024-02-28T02:15:54;6.60;99.90
18225;DHT22;9237;48.590;8.854;2024-02-28T02:18:21;6.40;99.90
18225;DHT22;9237;48.590;8.854;2024-02-28T02:20:50;6.30;99.90
18225;DHT22;9237;48.590;8.854;2024-02-28T02:23:21;6.30;99.90
18225;DHT22;9237;48.590;8.854;2024-02-28T02:25:48;6.30;99.90
18225;DHT22;9237;48.590;8.854;2024-02-28T02:28:15;6.30;99.90
18225;DHT22;9237;48.590;8.854;2024-02-28T02:30:42;6.30;99.90
18225;DHT22;9237;48.590;8.854;2024-02-28T02:33:09;6.30;99.90
18225;DHT22;9237;48.590;8.854;2024-02-28T02:35:36;6.30;99.90
18225;DHT22;9237;48.590;8.854;2024-02-28T02:38:03;6.30;99.90
18225;DHT22;9237;48.590;8.854;2024-02-28T02:40:32;6.50;99.90
18225;DHT22;9237;48.590;8.854;2024-02-28T02:42:58;6.20;99.90
18225;DHT22;9237;48.590;8.854;2024-02-28T02:45:25;6.20;99.90
18225;DHT22;9237;48.590;8.854;2024-02-28T02:47:52;6.30;99.90
18225;DHT22;9237;48.590;8.854;2024-02-28T02:50:19;6.20;99.90
18225;DHT22;9237;48.590;8.854;2024-02-28T02:52:45;6.10;99.90
18225;DHT22;9237;48.590;8.854;2024-02-28T02:55:12;6.20;99.90
18225;DHT22;9237;48.590;8.854;2024-02-28T02:57:41;6.10;99.90
18225;DHT22;9237;48.590;8.854;2024-02-28T03:00:10;6.10;99.90
18225;DHT22;9237;48.590;8.854;2024-02-28T03:02:37;6.10;99.90
18225;DHT22;9237;48.590;8.854;2024-02-28T03:05:05;6.20;99.90
18225;DHT22;9237;48.590;8.854;2024-02-28T03:07:33;6.10;99.90
18225;DHT22;9237;48.590;8.854;2024-02-28T03:09:59;6.10;99.90
18225;DHT22;9237;48.590;8.854;2024-02-28T03:12:27;6.10;99.90
18225;DHT22;9237;48.590;8.854;2024-02-28T03:14:55;6.20;99.90
18225;DHT22;9237;48.590;8.854;2024-02-28T03:17:22;6.20;99.90
18225;DHT22;9237;48.590;8.854;2024-02-28T03:19:49;6.30;99.90
18225;DHT22;9237;48.590;8.854;2024-02-28T03:22:16;6.20;99.90
18225;DHT22;9237;48.590;8.854;2024-02-28T03:24:42;6.10;99.90
18225;DHT22;9237;48.590;8.854;2024-02-28T03:27:09;6.10;99.90
18225;DHT22;9237;48.590;8.854;2024-02-28T03:29:36;6.00;99.90
18225;DHT22;9237;48.590;8.854;2024-02-28T03:32:05;6.00;99.90
18225;DHT22;9237;48.590;8.854;2024-02-28T03:34:32;6.10;99.90
18225;DHT22;9237;48.590;8.854;2024-02-28T03:36:59;6.00;99.90
18225;DHT22;9237;48.590;8.854;2024-02-28T03:39:26;6.00;99.90
18225;DHT22;9237;48.590;8.854;2024-02-28T03:41:52;6.00;99.90
18225;DHT22;9237;48.590;8.854;2024-02-28T03:44:19;6.00;99.90
18225;DHT22;9237;48.590;8.854;2024-02-28T03:46:47;6.00;99.90
18225;DHT22;9237;48.590;8.854;2024-02-28T03:49:15;6.00;99.90
18225;DHT22;9237;48.590;8.854;2024-02-28T03:51:42;6.00;99.90
18225;DHT22;9237;48.590;8.854;2024-02-28T03:54:08;6.00;99.90
18225;DHT22;9237;48.590;8.854;2024-02-28T03:56:35;6.00;99.90
18225;DHT22;9237;48.590;8.854;2024-02-28T03:59:02;6.00;99.90
18225;DHT22;9237;48.590;8.854;2024-02-28T04:01:29;6.00;99.90
18225;DHT22;9237;48.590;8.854;2024-02-28T04:03:56;6.00;99.90
18225;DHT22;9237;48.590;8.854;2024-02-28T04:06:24;6.00;99.90
18225;DHT22;9237;48.590;8.854;2024-02-28T04:08:51;6.00;99.90
18225;DHT22;9237;48.590;8.854;2024-02-28T04:11:18;5.90;99.90
18225;DHT22;9237;48.590;8.854;2024-02-28T04:13:45;5.90;99.90
18225;DHT22;9237;48.590;8.854;2024-02-28T04:16:12;6.00;99.90
18225;DHT22;9237;48.590;8.854;2024-02-28T04:18:39;5.90;99.90
18225;DHT22;9237;48.590;8.854;2024-02-28T04:21:06;5.90;99.90
18225;DHT22;9237;48.590;8.854;2024-02-28T04:23:34;5.90;99.90
18225;DHT22;9237;48.590;8.854;2024-02-28T04:26:01;5.90;99.90
18225;DHT22;9237;48.590;8.854;2024-02-28T04:28:29;5.90;99.90
18225;DHT22;9237;48.590;8.854;2024-02-28T04:30:56;5.90;99.90
18225;DHT22;9237;48.590;8.854;2024-02-28T04:33:22;5.90;99.90
18225;DHT22;9237;48.590;8.854;2024-02-28T04:35:49;5.90;99.90
18225;DHT22;9237;48.590;8.854;2024-02-28T04:38:16;5.90;99.90
18225;DHT22;9237;48.590;8.854;2024-02-28T04:40:44;5.90;99.90
18225;DHT22;9237;48.590;8.854;2024-02-28T04:43:11;5.80;99.90
18225;DHT22;9237;48.590;8.854;2024-02-28T04:45:38;5.80;99.90
18225;DHT22;9237;48.590;8.854;2024-02-28T04:48:05;5.90;99.90
18225;DHT22;9237;48.590;8.854;2024-02-28T04:50:32;5.90;99.90
18225;DHT22;9237;48.590;8.854;2024-02-28T04:52:59;5.80;99.90
18225;DHT22;9237;48.590;8.854;2024-02-28T04:55:26;5.80;99.90
18225;DHT22;9237;48.590;8.854;2024-02-28T04:57:55;5.80;99.90
18225;DHT22;9237;48.590;8.854;2024-02-28T05:00:22;5.80;99.90
18225;DHT22;9237;48.590;8.854;2024-02-28T05:02:49;5.80;99.90
18225;DHT22;9237;48.590;8.854;2024-02-28T05:05:15;5.80;99.90
18225;DHT22;9237;48.590;8.854;2024-02-28T05:07:42;5.80;99.90
18225;DHT22;9237;48.590;8.854;2024-02-28T05:10:09;5.70;99.90
18225;DHT22;9237;48.590;8.854;2024-02-28T05:12:36;5.70;99.90
18225;DHT22;9237;48.590;8.854;2024-02-28T05:15:05;5.70;99.90
18225;DHT22;9237;48.590;8.854;2024-02-28T05:17:32;5.70;99.90
18225;DHT22;9237;48.590;8.854;2024-02-28T05:19:59;5.60;99.90
18225;DHT22;9237;48.590;8.854;2024-02-28T05:22:26;5.60;99.90
18225;DHT22;9237;48.590;8.854;2024-02-28T05:24:53;5.70;99.90
18225;DHT22;9237;48.590;8.854;2024-02-28T05:27:19;5.70;99.90
18225;DHT22;9237;48.590;8.854;2024-02-28T05:29:47;5.70;99.90
18225;DHT22;9237;48.590;8.854;2024-02-28T05:32:15;5.60;99.90
18225;DHT22;9237;48.590;8.854;2024-02-28T05:34:43;5.70;99.90
18225;DHT22;9237;48.590;8.854;2024-02-28T05:37:09;5.70;99.90
18225;DHT22;9237;48.590;8.854;2024-02-28T05:39:37;5.70;99.90
18225;DHT22;9237;48.590;8.854;2024-02-28T05:42:04;5.70;99.90
18225;DHT22;9237;48.590;8.854;2024-02-28T05:44:31;5.70;99.90
18225;DHT22;9237;48.590;8.854;2024-02-28T05:46:57;5.60;99.90
18225;DHT22;9237;48.590;8.854;2024-02-28T05:49:26;5.60;99.90
18225;DHT22;9237;48.590;8.854;2024-02-28T05:51:53;5.60;99.90
18225;DHT22;9237;48.590;8.854;2024-02-28T05:54:20;5.70;99.90
18225;DHT22;9237;48.590;8.854;2024-02-28T05:56:46;5.70;99.90
18225;DHT22;9237;48.590;8.854;2024-02-28T05:59:13;5.60;99.90
18225;DHT22;9237;48.590;8.854;2024-02-28T06:01:41;5.60;99.90
18225;DHT22;9237;48.590;8.854;2024-02-28T06:04:07;5.60;99.90
18225;DHT22;9237;48.590;8.854;2024-02-28T06:06:35;5.50;99.90
18225;DHT22;9237;48.590;8.854;2024-02-28T06:09:02;5.60;99.90
18225;DHT22;9237;48.590;8.854;2024-02-28T06:11:29;5.60;99.90
18225;DHT22;9237;48.590;8.854;2024-02-28T06:13:56;5.60;99.90
18225;DHT22;9237;48.590;8.854;2024-02-28T06:16:23;5.60;99.90
18225;DHT22;9237;48.590;8.854;2024-02-28T06:18:49;5.60;99.90
18225;DHT22;9237;48.590;8.854;2024-02-28T06:21:16;5.60;99.90
18225;DHT22;9237;48.590;8.854;2024-02-28T06:23:44;5.60;99.90
18225;DHT22;9237;48.590;8.854;2024-02-28T06:26:11;5.60;99.90
18225;DHT22;9237;48.590;8.854;2024-02-28T06:28:42;5.60;99.90
18225;DHT22;9237;48.590;8.854;2024-02-28T06:31:14;5.70;99.90
18225;DHT22;9237;48.590;8.854;2024-02-28T06:33:42;5.70;99.90
18225;DHT22;9237;48.590;8.854;2024-02-28T06:36:09;5.80;99.90
18225;DHT22;9237;48.590;8.854;2024-02-28T06:38:35;5.80;99.90
18225;DHT22;9237;48.590;8.854;2024-02-28T06:41:04;5.70;99.90
18225;DHT22;9237;48.590;8.854;2024-02-28T06:43:33;5.70;99.90
18225;DHT22;9237;48.590;8.854;2024-02-28T06:46:01;5.70;99.90
18225;DHT22;9237;48.590;8.854;2024-02-28T06:48:28;5.80;99.90
18225;DHT22;9237;48.590;8.854;2024-02-28T06:50:55;5.70;99.90
18225;DHT22;9237;48.590;8.854;2024-02-28T06:53:23;5.70;99.90
18225;DHT22;9237;48.590;8.854;2024-02-28T06:55:49;5.70;99.90
18225;DHT22;9237;48.590;8.854;2024-02-28T06:58:18;5.60;99.90
18225;DHT22;9237;48.590;8.854;2024-02-28T07:00:44;5.60;99.90
18225;DHT22;9237;48.590;8.854;2024-02-28T07:03:11;5.70;99.90
18225;DHT22;9237;48.590;8.854;2024-02-28T07:05:38;5.60;99.90
18225;DHT22;9237;48.590;8.854;2024-02-28T07:08:05;5.70;99.90
18225;DHT22;9237;48.590;8.854;2024-02-28T07:10:32;5.70;99.90
18225;DHT22;9237;48.590;8.854;2024-02-28T07:12:58;5.80;99.90
18225;DHT22;9237;48.590;8.854;2024-02-28T07:15:26;5.80;99.90
18225;DHT22;9237;48.590;8.854;2024-02-28T07:17:53;5.80;99.90
18225;DHT22;9237;48.590;8.854;2024-02-28T07:20:20;5.80;99.90
18225;DHT22;9237;48.590;8.854;2024-02-28T07:22:46;5.90;99.90
18225;DHT22;9237;48.590;8.854;2024-02-28T07:25:13;6.00;99.90
18225;DHT22;9237;48.590;8.854;2024-02-28T07:27:40;6.00;99.90
18225;DHT22;9237;48.590;8.854;2024-02-28T07:30:07;6.00;99.90
18225;DHT22;9237;48.590;8.854;2024-02-28T07:32:36;6.10;99.90
18225;DHT22;9237;48.590;8.854;2024-02-28T07:35:03;6.10;99.90
18225;DHT22;9237;48.590;8.854;2024-02-28T07:37:30;6.10;99.90
18225;DHT22;9237;48.590;8.854;2024-02-28T07:39:56;6.10;99.90
18225;DHT22;9237;48.590;8.854;2024-02-28T07:42:23;6.10;99.90
18225;DHT22;9237;48.590;8.854;2024-02-28T07:44:50;6.20;99.90
18225;DHT22;9237;48.590;8.854;2024-02-28T07:47:22;6.20;99.90
18225;DHT22;9237;48.590;8.854;2024-02-28T07:49:50;6.20;99.90
18225;DHT22;9237;48.590;8.854;2024-02-28T07:52:17;6.20;99.90
18225;DHT22;9237;48.590;8.854;2024-02-28T07:54:44;6.20;99.90
18225;DHT22;9237;48.590;8.854;2024-02-28T07:57:11;6.20;99.90
18225;DHT22;9237;48.590;8.854;2024-02-28T07:59:41;6.20;99.90
18225;DHT22;9237;48.590;8.854;2024-02-28T08:02:08;6.10;99.90
18225;DHT22;9237;48.590;8.854;2024-02-28T08:04:37;6.20;99.90
18225;DHT22;9237;48.590;8.854;2024-02-28T08:07:05;6.30;99.90
18225;DHT22;9237;48.590;8.854;2024-02-28T08:09:32;6.30;99.90
18225;DHT22;9237;48.590;8.854;2024-02-28T08:11:59;6.30;99.90
18225;DHT22;9237;48.590;8.854;2024-02-28T08:14:27;6.20;99.90
18225;DHT22;9237;48.590;8.854;2024-02-28T08:16:54;6.30;99.90
18225;DHT22;9237;48.590;8.854;2024-02-28T08:19:20;6.30;99.90
18225;DHT22;9237;48.590;8.854;2024-02-28T08:21:47;6.30;99.90
18225;DHT22;9237;48.590;8.854;2024-02-28T08:24:15;6.30;99.90
18225;DHT22;9237;48.590;8.854;2024-02-28T08:26:42;6.30;99.90
18225;DHT22;9237;48.590;8.854;2024-02-28T08:29:09;6.40;99.90
18225;DHT22;9237;48.590;8.854;2024-02-28T08:31:40;6.40;99.90
18225;DHT22;9237;48.590;8.854;2024-02-28T08:34:08;6.30;99.90
18225;DHT22;9237;48.590;8.854;2024-02-28T08:36:35;6.30;99.90
18225;DHT22;9237;48.590;8.854;2024-02-28T08:39:02;6.40;99.90
18225;DHT22;9237;48.590;8.854;2024-02-28T08:41:33;6.40;99.90
18225;DHT22;9237;48.590;8.854;2024-02-28T08:44:00;6.40;99.90
18225;DHT22;9237;48.590;8.854;2024-02-28T08:46:27;6.50;99.90
18225;DHT22;9237;48.590;8.854;2024-02-28T08:48:54;6.50;99.90
18225;DHT22;9237;48.590;8.854;2024-02-28T08:51:20;6.60;99.90
18225;DHT22;9237;48.590;8.854;2024-02-28T08:53:47;6.60;99.90
18225;DHT22;9237;48.590;8.854;2024-02-28T08:56:14;6.60;99.90
18225;DHT22;9237;48.590;8.854;2024-02-28T08:58:42;6.60;99.90
18225;DHT22;9237;48.590;8.854;2024-02-28T09:01:13;6.70;99.90
18225;DHT22;9237;48.590;8.854;2024-02-28T09:03:40;6.70;99.90
18225;DHT22;9237;48.590;8.854;2024-02-28T09:06:07;6.80;99.90
18225;DHT22;9237;48.590;8.854;2024-02-28T09:08:34;6.90;99.90
18225;DHT22;9237;48.590;8.854;2024-02-28T09:11:01;7.00;99.90
18225;DHT22;9237;48.590;8.854;2024-02-28T09:13:28;6.80;99.90
18225;DHT22;9237;48.590;8.854;2024-02-28T09:15:57;6.80;99.90
18225;DHT22;9237;48.590;8.854;2024-02-28T09:18:23;6.90;99.90
18225;DHT22;9237;48.590;8.854;2024-02-28T09:20:50;7.20;99.90
18225;DHT22;9237;48.590;8.854;2024-02-28T09:23:17;7.10;99.90
18225;DHT22;9237;48.590;8.854;2024-02-28T09:25:44;7.10;99.90
18225;DHT22;9237;48.590;8.854;2024-02-28T09:28:11;7.20;99.90
18225;DHT22;9237;48.590;8.854;2024-02-28T09:30:39;8.00;99.90
18225;DHT22;9237;48.590;8.854;2024-02-28T09:33:07;7.30;99.90
18225;DHT22;9237;48.590;8.854;2024-02-28T09:35:34;7.30;99.90
18225;DHT22;9237;48.590;8.854;2024-02-28T09:38:01;7.20;99.90
18225;DHT22;9237;48.590;8.854;2024-02-28T09:40:29;7.30;99.90
18225;DHT22;9237;48.590;8.854;2024-02-28T09:43:01;7.40;99.90
18225;DHT22;9237;48.590;8.854;2024-02-28T09:45:29;7.30;99.90
18225;DHT22;9237;48.590;8.854;2024-02-28T09:47:58;7.50;99.90
18225;DHT22;9237;48.590;8.854;2024-02-28T09:50:27;7.60;99.90
18225;DHT22;9237;48.590;8.854;2024-02-28T09:52:54;8.00;99.90
18225;DHT22;9237;48.590;8.854;2024-02-28T09:55:21;8.10;99.90
18225;DHT22;9237;48.590;8.854;2024-02-28T09:57:48;7.60;99.90
18225;DHT22;9237;48.590;8.854;2024-02-28T10:00:19;7.80;99.90
18225;DHT22;9237;48.590;8.854;2024-02-28T10:02:47;7.90;99.90
18225;DHT22;9237;48.590;8.854;2024-02-28T10:05:15;8.10;99.90
18225;DHT22;9237;48.590;8.854;2024-02-28T10:07:45;8.10;99.90
18225;DHT22;9237;48.590;8.854;2024-02-28T10:10:12;7.50;99.90
18225;DHT22;9237;48.590;8.854;2024-02-28T10:12:41;7.60;99.90
18225;DHT22;9237;48.590;8.854;2024-02-28T10:15:10;7.90;99.90
18225;DHT22;9237;48.590;8.854;2024-02-28T10:17:37;7.80;99.90
18225;DHT22;9237;48.590;8.854;2024-02-28T10:20:04;7.90;99.90
18225;DHT22;9237;48.590;8.854;2024-02-28T10:22:34;8.00;99.90
18225;DHT22;9237;48.590;8.854;2024-02-28T10:25:02;8.00;99.90
18225;DHT22;9237;48.590;8.854;2024-02-28T10:27:32;8.10;99.90
18225;DHT22;9237;48.590;8.854;2024-02-28T10:29:59;8.10;99.90
18225;DHT22;9237;48.590;8.854;2024-02-28T10:32:27;8.00;99.90
18225;DHT22;9237;48.590;8.854;2024-02-28T10:34:54;8.10;99.90
18225;DHT22;9237;48.590;8.854;2024-02-28T10:37:21;8.20;99.90
18225;DHT22;9237;48.590;8.854;2024-02-28T10:39:49;8.30;99.90
18225;DHT22;9237;48.590;8.854;2024-02-28T10:42:21;8.40;99.90
18225;DHT22;9237;48.590;8.854;2024-02-28T10:44:50;8.50;99.90
18225;DHT22;9237;48.590;8.854;2024-02-28T10:47:18;8.50;99.90
18225;DHT22;9237;48.590;8.854;2024-02-28T10:49:45;8.60;99.90
18225;DHT22;9237;48.590;8.854;2024-02-28T10:52:12;8.70;99.90
18225;DHT22;9237;48.590;8.854;2024-02-28T10:54:42;8.70;99.90
18225;DHT22;9237;48.590;8.854;2024-02-28T10:57:12;8.50;99.90
18225;DHT22;9237;48.590;8.854;2024-02-28T10:59:40;8.80;99.90
18225;DHT22;9237;48.590;8.854;2024-02-28T11:02:09;8.90;99.90
18225;DHT22;9237;48.590;8.854;2024-02-28T11:04:36;8.90;99.90
18225;DHT22;9237;48.590;8.854;2024-02-28T11:07:03;9.00;99.90
18225;DHT22;9237;48.590;8.854;2024-02-28T11:09:30;9.20;99.90
18225;DHT22;9237;48.590;8.854;2024-02-28T11:11:57;9.40;99.90
18225;DHT22;9237;48.590;8.854;2024-02-28T11:14:24;9.50;99.90
18225;DHT22;9237;48.590;8.854;2024-02-28T11:17:03;9.30;99.90
18225;DHT22;9237;48.590;8.854;2024-02-28T11:19:31;9.20;99.90
18225;DHT22;9237;48.590;8.854;2024-02-28T11:21:59;9.00;99.90
18225;DHT22;9237;48.590;8.854;2024-02-28T11:24:29;8.70;99.90
18225;DHT22;9237;48.590;8.854;2024-02-28T11:26:56;8.70;99.90
18225;DHT22;9237;48.590;8.854;2024-02-28T11:29:24;8.30;99.90
18225;DHT22;9237;48.590;8.854;2024-02-28T11:31:52;8.50;99.90
18225;DHT22;9237;48.590;8.854;2024-02-28T11:34:21;8.30;99.90
18225;DHT22;9237;48.590;8.854;2024-02-28T11:36:48;8.20;99.90
18225;DHT22;9237;48.590;8.854;2024-02-28T11:39:15;7.80;99.90
18225;DHT22;9237;48.590;8.854;2024-02-28T11:41:42;8.00;99.90
18225;DHT22;9237;48.590;8.854;2024-02-28T11:44:12;8.00;99.90
18225;DHT22;9237;48.590;8.854;2024-02-28T11:46:43;8.40;99.90
18225;DHT22;9237;48.590;8.854;2024-02-28T11:49:10;8.40;99.90
18225;DHT22;9237;48.590;8.854;2024-02-28T11:51:40;8.40;99.90
18225;DHT22;9237;48.590;8.854;2024-02-28T11:54:07;8.50;99.90
18225;DHT22;9237;48.590;8.854;2024-02-28T11:56:34;8.60;99.90
18225;DHT22;9237;48.590;8.854;2024-02-28T11:59:01;8.40;99.90
18225;DHT22;9237;48.590;8.854;2024-02-28T12:01:36;8.50;99.90
18225;DHT22;9237;48.590;8.854;2024-02-28T12:04:04;8.50;99.90
18225;DHT22;9237;48.590;8.854;2024-02-28T12:06:31;8.70;99.90
18225;DHT22;9237;48.590;8.854;2024-02-28T12:09:00;8.60;99.90
18225;DHT22;9237;48.590;8.854;2024-02-28T12:11:26;8.20;99.90
18225;DHT22;9237;48.590;8.854;2024-02-28T12:13:55;8.10;99.90
18225;DHT22;9237;48.590;8.854;2024-02-28T12:16:23;8.30;99.90
18225;DHT22;9237;48.590;8.854;2024-02-28T12:18:51;8.60;99.90
18225;DHT22;9237;48.590;8.854;2024-02-28T12:21:17;8.90;99.90
18225;DHT22;9237;48.590;8.854;2024-02-28T12:23:44;9.00;99.90
18225;DHT22;9237;48.590;8.854;2024-02-28T12:26:13;9.10;99.90
18225;DHT22;9237;48.590;8.854;2024-02-28T12:28:39;9.20;99.90
18225;DHT22;9237;48.590;8.854;2024-02-28T12:31:07;8.80;99.90
18225;DHT22;9237;48.590;8.854;2024-02-28T12:33:37;8.60;99.90
18225;DHT22;9237;48.590;8.854;2024-02-28T12:36:04;8.70;99.90
18225;DHT22;9237;48.590;8.854;2024-02-28T12:38:31;8.90;99.90
18225;DHT22;9237;48.590;8.854;2024-02-28T12:40:58;8.70;99.90
18225;DHT22;9237;48.590;8.854;2024-02-28T12:43:27;9.00;99.90
18225;DHT22;9237;48.590;8.854;2024-02-28T12:45:54;8.90;99.90
18225;DHT22;9237;48.590;8.854;2024-02-28T12:48:21;8.60;99.90
18225;DHT22;9237;48.590;8.854;2024-02-28T12:50:48;8.50;99.90
18225;DHT22;9237;48.590;8.854;2024-02-28T12:53:15;8.60;99.90
18225;DHT22;9237;48.590;8.854;2024-02-28T12:55:42;8.30;99.90
18225;DHT22;9237;48.590;8.854;2024-02-28T12:58:10;8.60;99.90
18225;DHT22;9237;48.590;8.854;2024-02-28T13:00:38;8.10;99.90
18225;DHT22;9237;48.590;8.854;2024-02-28T13:03:05;8.40;99.90
18225;DHT22;9237;48.590;8.854;2024-02-28T13:05:33;8.40;99.90
18225;DHT22;9237;48.590;8.854;2024-02-28T13:07:59;8.80;99.90
18225;DHT22;9237;48.590;8.854;2024-02-28T13:10:26;9.00;99.90
18225;DHT22;9237;48.590;8.854;2024-02-28T13:12:53;9.20;99.90
18225;DHT22;9237;48.590;8.854;2024-02-28T13:15:20;9.30;99.90
18225;DHT22;9237;48.590;8.854;2024-02-28T13:17:48;9.20;99.90
18225;DHT22;9237;48.590;8.854;2024-02-28T13:20:15;8.60;99.90
18225;DHT22;9237;48.590;8.854;2024-02-28T13:22:42;8.80;99.90
18225;DHT22;9237;48.590;8.854;2024-02-28T13:25:09;8.80;99.90
18225;DHT22;9237;48.590;8.854;2024-02-28T13:27:36;8.60;99.90
18225;DHT22;9237;48.590;8.854;2024-02-28T13:30:04;8.60;99.90
18225;DHT22;9237;48.590;8.854;2024-02-28T13:32:30;8.70;99.90
18225;DHT22;9237;48.590;8.854;2024-02-28T13:34:59;8.40;99.90
18225;DHT22;9237;48.590;8.854;2024-02-28T13:37:26;8.50;99.90
18225;DHT22;9237;48.590;8.854;2024-02-28T13:39:52;8.40;99.90
18225;DHT22;9237;48.590;8.854;2024-02-28T13:42:19;9.10;99.90
18225;DHT22;9237;48.590;8.854;2024-02-28T13:44:46;8.60;99.90
18225;DHT22;9237;48.590;8.854;2024-02-28T13:47:13;8.40;99.90
18225;DHT22;9237;48.590;8.854;2024-02-28T13:49:40;8.40;99.90
18225;DHT22;9237;48.590;8.854;2024-02-28T13:52:08;8.30;99.90
18225;DHT22;9237;48.590;8.854;2024-02-28T13:54:35;8.50;99.90
18225;DHT22;9237;48.590;8.854;2024-02-28T13:57:01;8.50;99.90
18225;DHT22;9237;48.590;8.854;2024-02-28T13:59:30;8.60;99.90
18225;DHT22;9237;48.590;8.854;2024-02-28T14:01:57;8.70;99.90
18225;DHT22;9237;48.590;8.854;2024-02-28T14:04:25;8.70;99.90
18225;DHT22;9237;48.590;8.854;2024-02-28T14:06:52;8.80;99.90
18225;DHT22;9237;48.590;8.854;2024-02-28T14:09:20;8.90;99.90
18225;DHT22;9237;48.590;8.854;2024-02-28T14:11:46;8.70;99.90
18225;DHT22;9237;48.590;8.854;2024-02-28T14:14:13;8.50;99.90
18225;DHT22;9237;48.590;8.854;2024-02-28T14:16:41;8.40;99.90
18225;DHT22;9237;48.590;8.854;2024-02-28T14:19:08;8.50;99.90
18225;DHT22;9237;48.590;8.854;2024-02-28T14:21:35;8.50;99.90
18225;DHT22;9237;48.590;8.854;2024-02-28T14:24:02;8.60;99.90
18225;DHT22;9237;48.590;8.854;2024-02-28T14:26:30;8.70;99.90
18225;DHT22;9237;48.590;8.854;2024-02-28T14:28:57;8.90;99.90
18225;DHT22;9237;48.590;8.854;2024-02-28T14:31:24;8.40;99.90
18225;DHT22;9237;48.590;8.854;2024-02-28T14:33:52;9.00;99.90
18225;DHT22;9237;48.590;8.854;2024-02-28T14:36:20;8.10;99.90
18225;DHT22;9237;48.590;8.854;2024-02-28T14:38:46;8.30;99.90
18225;DHT22;9237;48.590;8.854;2024-02-28T14:41:13;8.10;99.90
18225;DHT22;9237;48.590;8.854;2024-02-28T14:43:42;8.20;99.90
18225;DHT22;9237;48.590;8.854;2024-02-28T14:46:09;8.10;99.90
18225;DHT22;9237;48.590;8.854;2024-02-28T14:48:36;8.10;99.90
18225;DHT22;9237;48.590;8.854;2024-02-28T14:51:04;8.00;99.90
18225;DHT22;9237;48.590;8.854;2024-02-28T14:53:32;7.70;99.90
18225;DHT22;9237;48.590;8.854;2024-02-28T14:55:58;8.00;99.90
18225;DHT22;9237;48.590;8.854;2024-02-28T14:58:25;8.30;99.90
18225;DHT22;9237;48.590;8.854;2024-02-28T15:00:53;8.40;99.90
18225;DHT22;9237;48.590;8.854;2024-02-28T15:03:23;8.60;99.90
18225;DHT22;9237;48.590;8.854;2024-02-28T15:05:51;8.70;99.90
18225;DHT22;9237;48.590;8.854;2024-02-28T15:08:17;8.40;99.90
18225;DHT22;9237;48.590;8.854;2024-02-28T15:10:44;8.40;99.90
18225;DHT22;9237;48.590;8.854;2024-02-28T15:13:11;8.40;99.90
18225;DHT22;9237;48.590;8.854;2024-02-28T15:15:38;8.40;99.90
18225;DHT22;9237;48.590;8.854;2024-02-28T15:18:06;8.40;99.90
18225;DHT22;9237;48.590;8.854;2024-02-28T15:20:33;8.10;99.90
18225;DHT22;9237;48.590;8.854;2024-02-28T15:23:00;8.20;99.90
18225;DHT22;9237;48.590;8.854;2024-02-28T15:25:26;8.20;99.90
18225;DHT22;9237;48.590;8.854;2024-02-28T15:27:53;8.20;99.90
18225;DHT22;9237;48.590;8.854;2024-02-28T15:30:20;8.30;99.90
18225;DHT22;9237;48.590;8.854;2024-02-28T15:32:47;8.60;99.90
18225;DHT22;9237;48.590;8.854;2024-02-28T15:35:15;8.60;99.90
18225;DHT22;9237;48.590;8.854;2024-02-28T15:37:42;8.60;99.90
18225;DHT22;9237;48.590;8.854;2024-02-28T15:40:10;8.50;99.90
18225;DHT22;9237;48.590;8.854;2024-02-28T15:42:36;8.50;99.90
18225;DHT22;9237;48.590;8.854;2024-02-28T15:45:04;8.70;99.90
18225;DHT22;9237;48.590;8.854;2024-02-28T15:47:31;8.70;99.90
18225;DHT22;9237;48.590;8.854;2024-02-28T15:49:58;9.40;99.90
18225;DHT22;9237;48.590;8.854;2024-02-28T15:52:26;10.20;99.90
18225;DHT22;9237;48.590;8.854;2024-02-28T15:54:53;10.40;99.90
18225;DHT22;9237;48.590;8.854;2024-02-28T15:57:20;10.40;99.90
18225;DHT22;9237;48.590;8.854;2024-02-28T15:59:47;10.30;99.90
18225;DHT22;9237;48.590;8.854;2024-02-28T16:02:14;9.80;99.90